Time;durP1;ratioP1;P1;durP2;ratioP2;P2;SDS_P1;SDS_P2;PMS_P1;PMS_P2;Temp;Humidity;BMP_temperature;BMP_pressure;BME280_temperature;BME280_humidity;BME280_pressure;Samples;Min_cycle;Max_cycle;Signal;HPM_P1;HPM_P2
2022/01/22 00:01:52;;;;;;;2.37;2.17;;;6.20;1.00;;;;;;5093873;28;20838;-74
2022/01/22 00:04:18;;;;;;;5.53;2.70;;;6.30;1.00;;;;;;5093668;28;20181;-74
2022/01/22 00:06:43;;;;;;;2.60;2.40;;;6.30;1.00;;;;;;5094167;28;20838;-75
2022/01/22 00:09:10;;;;;;;5.23;2.40;;;6.20;1.00;;;;;;5088864;28;20197;-75
2022/01/22 00:11:39;;;;;;;2.73;2.50;;;6.20;1.00;;;;;;5076198;28;20616;-74
2022/01/22 00:14:24;;;;;;;4.80;2.07;;;6.20;1.00;;;;;;5093341;28;20448;-74
2022/01/22 00:16:56;;;;;;;2.40;2.20;;;6.30;1.00;;;;;;5094291;28;20434;-74
2022/01/22 00:19:22;;;;;;;3.20;2.90;;;6.20;1.00;;;;;;5091162;28;20862;-74
2022/01/22 00:21:49;;;;;;;9.83;2.90;;;6.20;1.00;;;;;;5093904;28;20439;-75
2022/01/22 00:24:15;;;;;;;3.00;2.50;;;6.30;1.00;;;;;;5092907;28;20908;-75
2022/01/22 00:26:42;;;;;;;8.33;2.73;;;6.30;1.00;;;;;;5092057;28;20443;-75
2022/01/22 00:29:10;;;;;;;2.60;2.40;;;6.30;1.00;;;;;;5092946;28;20391;-75
2022/01/22 00:31:37;;;;;;;4.03;2.47;;;6.20;1.00;;;;;;5092957;28;20546;-74
2022/01/22 00:34:03;;;;;;;3.13;2.83;;;6.30;1.00;;;;;;5093255;28;20788;-75
2022/01/22 00:36:28;;;;;;;2.80;2.50;;;6.20;1.00;;;;;;5093152;28;20420;-75
2022/01/22 00:38:54;;;;;;;5.17;3.03;;;6.30;1.00;;;;;;5092977;28;20169;-75
2022/01/22 00:41:20;;;;;;;5.80;3.00;;;6.30;1.00;;;;;;5090964;28;20236;-75
2022/01/22 00:43:46;;;;;;;3.13;2.83;;;6.20;1.00;;;;;;5089769;28;20178;-75
2022/01/22 00:46:12;;;;;;;5.60;3.30;;;6.20;1.00;;;;;;5092709;28;20601;-75
2022/01/22 00:48:38;;;;;;;2.00;1.87;;;6.30;1.00;;;;;;5092171;28;20165;-75
2022/01/22 00:51:03;;;;;;;3.20;2.90;;;6.30;1.00;;;;;;5092706;28;20204;-75
2022/01/22 00:53:29;;;;;;;7.80;2.33;;;6.30;1.00;;;;;;5093662;28;20196;-75
2022/01/22 00:55:55;;;;;;;3.67;2.97;;;6.30;1.00;;;;;;5091458;28;20169;-74
2022/01/22 00:58:20;;;;;;;12.13;2.50;;;6.20;1.00;;;;;;5073087;28;20567;-76
2022/01/22 01:00:46;;;;;;;4.43;2.87;;;6.20;1.00;;;;;;5072292;28;20650;-76
2022/01/22 01:03:12;;;;;;;3.90;2.53;;;6.20;1.00;;;;;;5092117;28;20633;-75
2022/01/22 01:05:37;;;;;;;10.70;3.10;;;6.20;1.00;;;;;;5090200;28;20193;-75
2022/01/22 01:08:04;;;;;;;2.97;2.67;;;6.20;1.00;;;;;;5092592;28;20642;-75
2022/01/22 01:10:30;;;;;;;3.40;2.23;;;6.20;1.00;;;;;;5092132;28;20182;-74
2022/01/22 01:12:56;;;;;;;4.70;2.67;;;6.20;1.00;;;;;;5076205;28;20420;-74
2022/01/22 01:32:19;;;;;;;2.37;2.03;;;6.00;1.00;;;;;;5087760;28;21030;-75
2022/01/22 01:34:47;;;;;;;3.47;2.10;;;6.10;1.00;;;;;;5092889;28;20395;-75
2022/01/22 01:37:15;;;;;;;3.67;2.63;;;6.10;1.00;;;;;;5094002;28;20416;-75
2022/01/22 01:39:44;;;;;;;5.93;3.00;;;6.10;1.00;;;;;;5095795;28;20407;-75
2022/01/22 01:42:16;;;;;;;4.13;2.50;;;6.10;1.00;;;;;;5096351;28;20427;-75
2022/01/22 01:44:42;;;;;;;5.33;2.87;;;6.10;1.00;;;;;;5096967;28;20449;-75
2022/01/22 01:47:10;;;;;;;4.83;3.27;;;6.10;1.00;;;;;;5086178;28;20448;-75
2022/01/22 01:49:36;;;;;;;2.53;2.40;;;6.00;1.00;;;;;;5086886;28;20536;-74
2022/01/22 01:52:05;;;;;;;4.97;2.70;;;6.00;1.00;;;;;;5077708;28;20443;-75
2022/01/22 01:55:02;;;;;;;8.33;2.37;;;6.00;1.00;;;;;;5096862;28;20745;-74
2022/01/22 02:00:17;;;;;;;2.60;2.40;;;6.00;1.00;;;;;;5061691;28;20439;-75
2022/01/22 02:02:45;;;;;;;11.23;3.00;;;5.90;1.00;;;;;;5095854;28;20434;-75
2022/01/22 02:05:12;;;;;;;3.17;2.60;;;5.90;1.00;;;;;;5096468;28;20197;-75
2022/01/22 02:07:39;;;;;;;3.10;2.17;;;5.90;1.00;;;;;;5092967;28;20510;-75
2022/01/22 02:10:12;;;;;;;5.97;2.80;;;6.00;1.00;;;;;;5095752;28;20424;-74
2022/01/22 02:23:35;;;;;;;5.40;3.00;;;6.00;1.00;;;;;;5095679;28;20537;-75
2022/01/22 02:26:03;;;;;;;3.20;2.97;;;6.00;1.00;;;;;;5096339;28;20792;-75
2022/01/22 02:28:29;;;;;;;6.10;2.57;;;5.90;1.00;;;;;;5078875;28;20479;-77
2022/01/22 02:30:58;;;;;;;3.17;2.87;;;5.90;1.00;;;;;;5091342;28;20443;-75
2022/01/22 02:33:38;;;;;;;4.90;2.80;;;5.90;1.00;;;;;;5095192;28;20419;-74
2022/01/22 02:38:52;;;;;;;2.80;2.40;;;6.00;1.00;;;;;;5075131;28;20416;-75
2022/01/22 02:41:21;;;;;;;2.43;2.20;;;6.00;1.00;;;;;;5091383;28;20477;-74
2022/01/22 02:43:47;;;;;;;2.50;2.40;;;6.10;1.00;;;;;;5096035;28;20400;-75
2022/01/22 02:46:19;;;;;;;2.43;2.10;;;6.00;1.00;;;;;;5095706;28;20439;-74
2022/01/22 02:48:44;;;;;;;3.13;2.60;;;6.00;1.00;;;;;;5076472;28;20459;-75
2022/01/22 02:51:10;;;;;;;4.60;2.80;;;6.00;1.00;;;;;;5095346;28;20959;-75
2022/01/22 02:53:36;;;;;;;4.73;2.60;;;6.10;1.00;;;;;;5095199;28;20256;-74
2022/01/22 02:56:02;;;;;;;3.60;2.40;;;6.10;1.00;;;;;;5095772;28;20822;-74
2022/01/22 02:58:29;;;;;;;12.93;2.77;;;6.10;1.00;;;;;;5091203;28;20453;-77
2022/01/22 03:00:54;;;;;;;3.00;2.37;;;6.20;1.00;;;;;;5095459;28;20419;-75
2022/01/22 03:03:20;;;;;;;2.63;2.43;;;6.10;1.00;;;;;;5094750;28;20834;-75
2022/01/22 03:05:46;;;;;;;2.57;2.20;;;6.10;1.00;;;;;;5095216;28;20200;-75
2022/01/22 03:08:13;;;;;;;9.43;2.50;;;6.20;1.00;;;;;;5090995;28;20190;-74
2022/01/22 03:10:41;;;;;;;2.70;2.50;;;6.20;1.00;;;;;;5076428;28;20550;-74
2022/01/22 03:13:24;;;;;;;11.00;2.83;;;6.20;1.00;;;;;;5094416;28;20514;-75
2022/01/22 03:18:34;;;;;;;2.90;2.50;;;6.20;1.00;;;;;;5094770;28;20420;-74
2022/01/22 03:21:08;;;;;;;3.90;3.07;;;6.20;1.00;;;;;;5085125;28;20198;-75
2022/01/22 03:29:10;;;;;;;5.20;2.30;;;6.10;1.00;;;;;;5094284;28;20490;-74
2022/01/22 03:31:37;;;;;;;4.00;2.10;;;6.10;1.00;;;;;;5080927;28;20440;-75
2022/01/22 03:34:04;;;;;;;3.77;3.47;;;6.10;1.00;;;;;;5074794;28;20397;-74
2022/01/22 03:36:32;;;;;;;8.73;2.37;;;6.10;1.00;;;;;;5086973;28;20415;-74
2022/01/22 03:38:58;;;;;;;6.50;2.60;;;6.00;1.00;;;;;;5093625;28;20951;-75
2022/01/22 03:41:24;;;;;;;5.10;3.37;;;6.00;1.00;;;;;;5094057;28;20556;-74
2022/01/22 03:43:51;;;;;;;5.43;2.20;;;6.10;1.00;;;;;;5094641;28;20180;-75
2022/01/22 03:46:17;;;;;;;3.90;2.73;;;6.10;1.00;;;;;;5085070;28;20619;-74
2022/01/22 03:48:42;;;;;;;5.33;2.87;;;6.10;1.00;;;;;;5083526;28;20515;-75
2022/01/22 03:51:08;;;;;;;12.47;2.70;;;6.10;1.00;;;;;;5094022;28;20589;-75
2022/01/22 03:53:34;;;;;;;3.60;2.70;;;6.10;1.00;;;;;;5094566;28;20216;-74
2022/01/22 03:56:03;;;;;;;3.60;2.80;;;6.20;1.00;;;;;;5093413;28;20173;-75
2022/01/22 03:58:33;;;;;;;4.13;2.80;;;6.20;1.00;;;;;;5075261;28;20231;-77
2022/01/22 04:03:43;;;;;;;4.80;3.00;;;6.10;1.00;;;;;;5094817;28;20396;-75
2022/01/22 04:08:44;;;;;;;4.70;3.07;;;6.20;1.00;;;;;;5073103;28;20904;-75
2022/01/22 04:11:14;;;;;;;3.87;2.80;;;6.20;1.00;;;;;;5075184;28;20790;-75
2022/01/22 04:13:40;;;;;;;4.23;2.37;;;6.20;1.00;;;;;;5093686;28;20965;-75
2022/01/22 04:16:07;;;;;;;5.60;2.40;;;6.20;1.00;;;;;;5093085;28;20419;-75
2022/01/22 04:26:57;;;;;;;2.00;1.90;;;6.20;1.00;;;;;;5077904;28;20550;-75
2022/01/22 04:29:25;;;;;;;3.40;2.07;;;6.20;1.00;;;;;;5092354;28;20407;-75
2022/01/22 04:31:51;;;;;;;5.30;2.83;;;6.30;1.00;;;;;;5093568;28;20525;-75
2022/01/22 04:34:17;;;;;;;3.20;2.47;;;6.30;1.00;;;;;;5074755;28;20487;-75
2022/01/22 04:36:42;;;;;;;2.80;2.33;;;6.30;1.00;;;;;;5075572;28;20922;-75
2022/01/22 04:39:08;;;;;;;2.13;1.97;;;6.30;1.00;;;;;;5092986;28;20450;-75
2022/01/22 04:41:34;;;;;;;6.73;2.97;;;6.20;1.00;;;;;;5074297;28;20666;-75
2022/01/22 04:44:03;;;;;;;3.10;2.77;;;6.30;1.00;;;;;;5073950;28;20393;-75
2022/01/22 04:52:29;;;;;;;3.00;2.70;;;6.20;1.00;;;;;;5091539;28;20451;-75
2022/01/22 04:55:00;;;;;;;3.07;2.77;;;6.30;1.00;;;;;;5087925;28;20431;-75
2022/01/22 04:57:27;;;;;;;8.20;2.67;;;6.30;1.00;;;;;;5073365;28;20491;-75
2022/01/22 04:59:53;;;;;;;3.43;2.33;;;6.20;1.00;;;;;;5086038;28;20422;-75
2022/01/22 05:02:18;;;;;;;7.77;3.33;;;6.20;1.00;;;;;;5093571;28;20892;-75
2022/01/22 05:04:44;;;;;;;2.40;2.20;;;6.30;1.00;;;;;;5092371;28;20197;-75
2022/01/22 05:07:10;;;;;;;4.57;3.07;;;6.30;1.00;;;;;;5093463;28;20165;-75
2022/01/22 05:09:35;;;;;;;2.87;2.67;;;6.30;1.00;;;;;;5088912;28;20189;-75
2022/01/22 05:12:01;;;;;;;7.80;3.00;;;6.30;1.00;;;;;;5080660;28;20554;-74
2022/01/22 05:14:27;;;;;;;3.93;2.60;;;6.30;1.00;;;;;;5092532;28;20610;-76
2022/01/22 05:16:55;;;;;;;3.20;2.90;;;6.30;1.00;;;;;;5093187;28;20466;-75
2022/01/22 05:19:29;;;;;;;2.37;2.17;;;6.30;1.00;;;;;;5091400;28;20208;-74
2022/01/22 05:22:00;;;;;;;7.47;2.53;;;6.30;1.00;;;;;;5092948;28;20461;-74
2022/01/22 05:24:30;;;;;;;4.00;2.63;;;6.30;1.00;;;;;;5091918;28;20415;-75
2022/01/22 05:32:29;;;;;;;3.03;2.60;;;6.30;1.00;;;;;;5089926;28;20426;-75
2022/01/22 05:37:39;;;;;;;9.13;6.50;;;6.30;1.00;;;;;;5087613;28;20442;-75
2022/01/22 05:40:05;;;;;;;12.53;6.80;;;6.30;1.00;;;;;;5089453;28;20915;-75
2022/01/22 05:42:31;;;;;;;7.77;4.40;;;6.40;1.00;;;;;;5092084;28;20205;-75
2022/01/22 05:44:56;;;;;;;8.20;4.00;;;6.30;1.00;;;;;;5092918;28;20829;-74
2022/01/22 05:47:26;;;;;;;7.40;4.67;;;6.30;1.00;;;;;;5088599;28;20252;-75
2022/01/22 05:49:53;;;;;;;4.27;3.60;;;6.30;1.00;;;;;;5091746;28;20622;-75
2022/01/22 05:52:28;;;;;;;4.70;4.20;;;6.30;1.00;;;;;;5092209;28;20503;-75
2022/01/22 06:00:07;;;;;;;7.00;4.67;;;6.40;1.00;;;;;;5091604;28;20792;-75
2022/01/22 06:02:33;;;;;;;14.17;4.90;;;6.40;1.00;;;;;;5091315;28;20803;-75
2022/01/22 06:04:58;;;;;;;8.03;5.60;;;6.40;1.00;;;;;;5092469;28;20466;-75
2022/01/22 06:07:24;;;;;;;7.93;4.40;;;6.40;1.00;;;;;;5087580;28;20166;-75
2022/01/22 06:15:14;;;;;;;7.03;4.53;;;6.50;1.00;;;;;;5072763;28;20493;-75
2022/01/22 06:17:39;;;;;;;6.87;5.10;;;6.50;1.00;;;;;;5092746;28;20406;-75
2022/01/22 06:20:06;;;;;;;8.20;4.60;;;6.40;1.00;;;;;;5066738;28;20964;-75
2022/01/22 06:22:33;;;;;;;6.10;4.73;;;6.50;1.00;;;;;;5081844;28;20696;-75
2022/01/22 06:24:59;;;;;;;5.77;4.20;;;6.50;1.00;;;;;;5095630;28;20456;-75
2022/01/22 06:27:24;;;;;;;14.67;4.80;;;6.50;1.00;;;;;;5077971;28;20473;-74
2022/01/22 06:29:50;;;;;;;8.40;4.70;;;6.50;1.00;;;;;;5094382;28;20192;-75
2022/01/22 06:32:15;;;;;;;11.00;5.20;;;6.50;1.00;;;;;;5096386;28;20526;-75
2022/01/22 06:34:41;;;;;;;4.43;3.77;;;6.50;1.00;;;;;;5094916;28;20499;-75
2022/01/22 06:37:07;;;;;;;8.30;4.70;;;6.50;1.00;;;;;;5075447;28;20174;-75
2022/01/22 06:39:41;;;;;;;14.03;5.10;;;6.50;1.00;;;;;;5075064;28;20200;-73
2022/01/22 06:42:07;;;;;;;12.97;6.73;;;6.50;1.00;;;;;;5092145;28;20193;-75
2022/01/22 06:44:34;;;;;;;17.53;6.77;;;6.50;1.00;;;;;;5095790;28;20423;-75
2022/01/22 06:47:00;;;;;;;15.43;5.87;;;6.50;1.00;;;;;;5095974;28;20461;-74
2022/01/22 06:49:26;;;;;;;14.23;4.90;;;6.50;1.00;;;;;;5076659;28;20431;-75
2022/01/22 06:51:54;;;;;;;7.67;5.00;;;6.50;1.00;;;;;;5095743;28;20526;-75
2022/01/22 06:54:21;;;;;;;11.03;5.10;;;6.50;1.00;;;;;;5095526;28;20216;-75
2022/01/22 06:56:47;;;;;;;6.20;4.70;;;6.50;1.00;;;;;;5095334;28;20415;-75
2022/01/22 06:59:13;;;;;;;23.10;6.83;;;6.50;1.00;;;;;;5093859;28;20792;-74
2022/01/22 07:01:39;;;;;;;13.97;6.00;;;6.50;1.00;;;;;;5094928;28;20441;-75
2022/01/22 07:04:06;;;;;;;14.53;6.83;;;6.50;1.00;;;;;;5093867;28;20177;-74
2022/01/22 07:06:32;;;;;;;14.83;7.20;;;6.50;1.00;;;;;;5094199;28;20466;-74
2022/01/22 07:08:58;;;;;;;10.30;6.17;;;6.50;1.00;;;;;;5093851;28;20541;-75
2022/01/22 07:11:24;;;;;;;19.50;6.67;;;6.50;1.00;;;;;;5095245;28;20200;-74
2022/01/22 07:13:50;;;;;;;15.40;6.80;;;6.40;1.00;;;;;;5094090;28;20426;-71
2022/01/22 07:16:15;;;;;;;10.60;7.00;;;6.50;1.00;;;;;;5094710;28;20456;-74
2022/01/22 07:18:42;;;;;;;20.83;6.33;;;6.50;1.00;;;;;;5093994;28;20470;-74
2022/01/22 07:21:18;;;;;;;14.33;6.60;;;6.50;1.00;;;;;;5094997;28;20186;-74
2022/01/22 07:26:12;;;;;;;18.10;6.63;;;6.50;1.00;;;;;;5095475;28;20447;-75
2022/01/22 07:28:39;;;;;;;12.83;6.00;;;6.50;1.00;;;;;;5094021;28;20422;-74
2022/01/22 07:31:05;;;;;;;13.20;7.23;;;6.50;1.00;;;;;;5093763;28;20193;-74
2022/01/22 07:33:31;;;;;;;17.53;6.30;;;6.50;1.00;;;;;;5094704;28;20465;-75
2022/01/22 07:35:57;;;;;;;8.77;5.47;;;6.50;1.00;;;;;;5094114;28;20793;-75
2022/01/22 07:38:22;;;;;;;8.37;5.67;;;6.50;1.00;;;;;;5094574;28;20515;-76
2022/01/22 07:40:48;;;;;;;9.40;6.50;;;6.50;1.00;;;;;;5093560;28;20673;-73
2022/01/22 07:43:17;;;;;;;9.60;5.40;;;6.40;1.00;;;;;;5094483;28;20177;-75
2022/01/22 07:45:43;;;;;;;9.67;5.80;;;6.40;1.00;;;;;;5094093;28;20946;-75
2022/01/22 07:48:09;;;;;;;7.70;4.80;;;6.50;1.00;;;;;;5094624;28;20407;-74
2022/01/22 07:50:35;;;;;;;14.10;5.63;;;6.50;1.00;;;;;;5093510;28;20423;-75
2022/01/22 07:53:02;;;;;;;12.57;6.97;;;6.50;1.00;;;;;;5094507;28;20451;-76
2022/01/22 07:55:28;;;;;;;7.47;5.70;;;6.50;1.00;;;;;;5094655;28;20162;-74
2022/01/22 07:57:54;;;;;;;13.80;6.60;;;6.50;1.00;;;;;;5094614;28;20415;-75
2022/01/22 08:00:19;;;;;;;9.27;5.40;;;6.50;1.00;;;;;;5093539;28;20800;-75
2022/01/22 08:02:46;;;;;;;7.57;5.43;;;6.60;1.00;;;;;;5093959;28;20173;-74
2022/01/22 08:05:11;;;;;;;12.47;7.47;;;6.60;1.00;;;;;;5094300;28;20667;-73
2022/01/22 08:07:39;;;;;;;11.00;5.40;;;6.60;1.00;;;;;;5093900;28;20514;-74
2022/01/22 08:10:08;;;;;;;10.23;6.00;;;6.60;1.00;;;;;;5093146;28;20900;-74
2022/01/22 08:12:35;;;;;;;18.03;6.60;;;6.60;1.00;;;;;;5094127;28;20423;-75
2022/01/22 08:15:01;;;;;;;9.37;6.37;;;6.60;1.00;;;;;;5094463;28;20407;-74
2022/01/22 08:17:26;;;;;;;6.40;5.00;;;6.60;1.00;;;;;;5094058;28;20752;-76
2022/01/22 08:19:53;;;;;;;8.17;4.77;;;6.60;1.00;;;;;;5074584;28;20181;-74
2022/01/22 08:22:19;;;;;;;11.30;5.57;;;6.60;1.00;;;;;;5094134;28;20172;-74
2022/01/22 08:24:45;;;;;;;10.10;5.47;;;6.60;1.00;;;;;;5093472;28;20533;-75
2022/01/22 08:27:32;;;;;;;9.03;4.60;;;6.60;1.00;;;;;;5092922;28;20170;-74
2022/01/22 08:29:58;;;;;;;6.97;4.67;;;6.70;1.00;;;;;;5092308;28;20470;-74
2022/01/22 08:37:39;;;;;;;6.63;4.13;;;6.80;1.00;;;;;;5093488;28;20469;-74
2022/01/22 08:40:07;;;;;;;8.40;5.40;;;6.80;1.00;;;;;;5092588;28;20419;-75
2022/01/22 08:42:32;;;;;;;7.60;3.83;;;6.80;1.00;;;;;;5092532;28;20419;-75
2022/01/22 08:44:58;;;;;;;9.20;4.83;;;6.80;1.00;;;;;;5093442;28;20800;-74
2022/01/22 08:47:23;;;;;;;6.80;4.50;;;6.90;1.00;;;;;;5093245;28;20165;-76
2022/01/22 08:49:49;;;;;;;4.60;4.20;;;6.80;1.00;;;;;;5091723;28;20176;-76
2022/01/22 08:52:16;;;;;;;8.30;4.90;;;6.80;1.00;;;;;;5093630;28;20173;-75
2022/01/22 08:54:44;;;;;;;6.60;4.50;;;6.80;1.00;;;;;;5093570;28;20173;-74
2022/01/22 08:57:10;;;;;;;8.20;4.70;;;6.80;1.00;;;;;;5093418;28;20927;-75
2022/01/22 08:59:36;;;;;;;10.10;5.53;;;6.90;1.00;;;;;;5092417;28;20403;-75
2022/01/22 09:02:04;;;;;;;7.77;4.63;;;6.80;1.00;;;;;;5093299;28;20431;-74
2022/01/22 09:04:31;;;;;;;10.40;4.47;;;6.80;1.00;;;;;;5093256;28;20446;-75
2022/01/22 09:06:57;;;;;;;7.60;5.70;;;6.60;1.00;;;;;;5093595;28;20399;-74
2022/01/22 09:09:23;;;;;;;6.37;5.20;;;6.60;1.00;;;;;;5092395;28;20416;-74
2022/01/22 09:11:49;;;;;;;9.23;5.40;;;6.70;1.00;;;;;;5093265;28;20411;-75
2022/01/22 09:14:16;;;;;;;7.80;4.80;;;6.80;1.00;;;;;;5093270;28;20396;-75
2022/01/22 09:16:43;;;;;;;12.67;4.73;;;6.80;1.00;;;;;;5092765;28;20256;-74
2022/01/22 09:19:11;;;;;;;10.93;5.00;;;6.80;1.00;;;;;;5092376;28;20435;-76
2022/01/22 09:21:43;;;;;;;9.37;5.17;;;6.90;1.00;;;;;;5093272;28;20423;-73
2022/01/22 09:24:10;;;;;;;6.80;4.60;;;6.90;1.00;;;;;;5093101;28;20399;-75
2022/01/22 09:26:36;;;;;;;7.27;4.57;;;7.00;1.00;;;;;;5092831;28;20443;-75
2022/01/22 09:29:03;;;;;;;7.83;5.57;;;7.10;1.00;;;;;;5092263;28;20407;-76
2022/01/22 09:31:30;;;;;;;4.97;3.73;;;7.00;1.00;;;;;;5093061;28;20422;-74
2022/01/22 09:33:58;;;;;;;4.20;3.13;;;7.00;1.00;;;;;;5093081;28;20752;-73
2022/01/22 09:36:24;;;;;;;7.37;4.27;;;7.00;1.00;;;;;;5092599;28;20411;-75
2022/01/22 09:38:51;;;;;;;5.47;4.70;;;7.10;1.00;;;;;;5092073;28;20392;-75
2022/01/22 09:41:18;;;;;;;12.93;5.03;;;7.10;1.00;;;;;;5092823;28;20416;-74
2022/01/22 09:43:44;;;;;;;11.60;4.70;;;7.10;1.00;;;;;;5092607;28;20432;-74
2022/01/22 09:46:11;;;;;;;5.50;4.63;;;7.20;1.00;;;;;;5074743;28;21048;-73
2022/01/22 09:48:41;;;;;;;5.63;4.20;;;7.20;1.00;;;;;;5091871;28;20403;-74
2022/01/22 09:51:07;;;;;;;5.60;3.50;;;7.10;1.00;;;;;;5092701;28;20416;-74
2022/01/22 09:53:33;;;;;;;4.10;3.60;;;7.20;1.00;;;;;;5092845;28;20403;-75
2022/01/22 09:55:58;;;;;;;4.80;3.80;;;7.30;1.00;;;;;;5092766;28;20422;-73
2022/01/22 09:58:24;;;;;;;5.93;2.87;;;7.30;1.00;;;;;;5094770;28;20557;-75
2022/01/22 10:00:50;;;;;;;4.53;4.13;;;7.30;1.00;;;;;;5096022;28;20232;-75
2022/01/22 10:03:18;;;;;;;4.07;2.80;;;7.30;1.00;;;;;;5096815;28;20208;-75
2022/01/22 10:05:44;;;;;;;3.13;2.90;;;7.30;1.00;;;;;;5096608;28;20731;-75
2022/01/22 10:08:38;;;;;;;3.17;2.87;;;7.20;1.00;;;;;;5096682;28;20904;-75
2022/01/22 10:11:20;;;;;;;3.13;2.17;;;7.20;1.00;;;;;;5093057;28;20517;-74
2022/01/22 10:13:50;;;;;;;3.00;2.80;;;7.20;1.00;;;;;;5096554;28;20392;-76
2022/01/22 10:16:30;;;;;;;2.73;2.53;;;7.20;1.00;;;;;;5095915;28;20486;-74
2022/01/22 10:19:08;;;;;;;3.70;2.67;;;7.20;1.00;;;;;;5095500;28;20406;-74
2022/01/22 10:21:34;;;;;;;4.50;3.70;;;7.20;1.00;;;;;;5096353;28;20911;-77
2022/01/22 10:24:25;;;;;;;4.73;2.43;;;7.10;1.00;;;;;;5096485;28;20759;-75
2022/01/22 10:27:23;;;;;;;2.90;2.70;;;7.10;1.00;;;;;;5096167;28;20400;-77
2022/01/22 10:29:55;;;;;;;2.80;2.30;;;7.20;1.00;;;;;;5095301;28;20400;-74
2022/01/22 10:32:35;;;;;;;5.20;2.50;;;7.00;1.00;;;;;;5095606;28;20487;-73
2022/01/22 10:35:06;;;;;;;3.60;2.90;;;6.90;1.00;;;;;;5095960;28;20791;-74
2022/01/22 10:37:32;;;;;;;4.93;3.00;;;6.90;1.00;;;;;;5096224;28;20876;-77
2022/01/22 10:40:20;;;;;;;5.83;2.67;;;6.90;1.00;;;;;;5095181;28;20487;-76
2022/01/22 10:42:46;;;;;;;2.50;2.30;;;7.00;1.00;;;;;;5096186;28;20178;-77
2022/01/22 10:45:19;;;;;;;4.80;2.53;;;7.10;1.00;;;;;;5095881;28;20530;-78
2022/01/22 10:47:45;;;;;;;2.93;2.57;;;7.20;1.00;;;;;;5095839;28;20403;-77
2022/01/22 10:50:22;;;;;;;2.40;2.20;;;7.30;1.00;;;;;;5094480;28;20451;-77
2022/01/22 10:52:50;;;;;;;3.00;2.70;;;7.30;1.00;;;;;;5095960;28;20407;-77
2022/01/22 10:55:17;;;;;;;4.10;2.00;;;7.30;1.00;;;;;;5095771;28;20400;-75
2022/01/22 10:58:07;;;;;;;5.40;2.40;;;7.30;1.00;;;;;;5095746;28;20396;-75
2022/01/22 11:00:33;;;;;;;4.50;2.40;;;7.40;1.00;;;;;;5094581;28;20513;-75
2022/01/22 11:02:59;;;;;;;2.63;2.40;;;7.30;1.00;;;;;;5095618;28;20404;-75
2022/01/22 11:05:37;;;;;;;2.77;2.33;;;7.30;1.00;;;;;;5095375;28;20462;-77
2022/01/22 11:08:13;;;;;;;2.90;2.70;;;7.40;1.00;;;;;;5095177;28;20204;-77
2022/01/22 11:10:40;;;;;;;5.17;2.27;;;7.40;1.00;;;;;;5093238;28;20829;-75
2022/01/22 11:13:05;;;;;;;8.77;2.30;;;7.50;1.00;;;;;;5095483;28;20405;-76
2022/01/22 11:15:32;;;;;;;2.80;2.33;;;7.50;1.00;;;;;;5095497;28;20415;-76
2022/01/22 11:17:59;;;;;;;7.57;3.20;;;7.50;1.00;;;;;;5095478;28;20184;-77
2022/01/22 11:20:25;;;;;;;5.40;2.67;;;7.40;1.00;;;;;;5094375;28;20428;-77
2022/01/22 11:22:52;;;;;;;3.47;2.80;;;7.40;1.00;;;;;;5095157;28;20408;-77
2022/01/22 11:25:19;;;;;;;8.50;4.50;;;7.40;1.00;;;;;;5094707;28;20455;-76
2022/01/22 11:27:47;;;;;;;3.63;2.83;;;7.30;1.00;;;;;;5095099;28;20393;-76
2022/01/22 11:30:15;;;;;;;2.67;2.43;;;7.40;1.00;;;;;;5094104;28;20412;-76
2022/01/22 11:32:46;;;;;;;3.93;3.10;;;7.40;1.00;;;;;;5095216;28;20397;-76
2022/01/22 11:35:13;;;;;;;3.77;3.47;;;7.40;1.00;;;;;;5094629;28;20427;-76
2022/01/22 11:37:43;;;;;;;3.90;3.20;;;7.50;1.00;;;;;;5094937;28;20366;-78
2022/01/22 11:40:13;;;;;;;4.73;3.20;;;7.50;1.00;;;;;;5093940;28;20424;-77
2022/01/22 11:43:20;;;;;;;3.90;3.40;;;7.50;1.00;;;;;;5094531;28;20847;-75
2022/01/22 11:45:53;;;;;;;4.90;3.23;;;7.50;1.00;;;;;;5094670;28;20444;-77
2022/01/22 11:48:20;;;;;;;3.97;2.60;;;7.50;1.00;;;;;;5094839;28;20396;-77
2022/01/22 11:50:48;;;;;;;2.97;2.73;;;7.50;1.00;;;;;;5093912;28;20419;-75
2022/01/22 11:53:22;;;;;;;2.43;2.13;;;7.50;1.00;;;;;;5094700;28;20408;-75
2022/01/22 11:56:10;;;;;;;3.07;2.87;;;7.50;1.00;;;;;;5094562;28;20402;-77
2022/01/22 11:58:56;;;;;;;2.80;2.60;;;7.50;1.00;;;;;;5093695;28;20755;-75
2022/01/22 12:01:45;;;;;;;2.50;2.30;;;7.40;1.00;;;;;;5093337;28;20427;-75
2022/01/22 12:04:16;;;;;;;2.13;1.80;;;7.40;1.00;;;;;;5094680;28;20411;-77
2022/01/22 12:07:00;;;;;;;2.10;1.90;;;7.40;1.00;;;;;;5094471;28;20536;-77
2022/01/22 12:09:30;;;;;;;2.80;2.60;;;7.40;1.00;;;;;;5093560;28;20423;-77
2022/01/22 12:14:47;;;;;;;3.00;2.37;;;7.50;1.00;;;;;;5094616;28;20458;-77
2022/01/22 12:17:19;;;;;;;2.50;2.30;;;7.40;1.00;;;;;;5093351;28;20415;-76
2022/01/22 12:20:03;;;;;;;4.37;3.20;;;7.40;1.00;;;;;;5092780;28;20459;-77
2022/01/22 12:22:30;;;;;;;3.00;2.70;;;7.50;1.00;;;;;;5094004;28;20427;-77
2022/01/22 12:24:57;;;;;;;2.50;2.40;;;7.40;1.00;;;;;;5094055;28;20455;-75
2022/01/22 12:27:43;;;;;;;3.27;2.97;;;7.50;1.00;;;;;;5093783;28;20435;-74
2022/01/22 12:30:09;;;;;;;2.30;2.10;;;7.50;1.00;;;;;;5093044;28;20434;-77
2022/01/22 12:32:50;;;;;;;2.90;2.70;;;7.40;1.00;;;;;;5093926;28;20395;-77
2022/01/22 12:35:39;;;;;;;3.60;2.90;;;7.40;1.00;;;;;;5093826;28;20384;-73
2022/01/22 12:38:17;;;;;;;3.10;2.40;;;7.50;1.00;;;;;;5093145;28;20408;-77
2022/01/22 12:40:44;;;;;;;2.73;2.53;;;7.50;1.00;;;;;;5092989;28;20438;-77
2022/01/22 12:43:14;;;;;;;2.30;2.20;;;7.50;1.00;;;;;;5093801;28;20404;-74
2022/01/22 12:45:43;;;;;;;2.47;2.00;;;7.50;1.00;;;;;;5093621;28;20453;-74
2022/01/22 12:48:12;;;;;;;2.37;2.17;;;7.50;1.00;;;;;;5093667;28;20431;-76
2022/01/22 12:50:38;;;;;;;2.43;2.23;;;7.50;1.00;;;;;;5092810;28;20443;-74
2022/01/22 12:53:10;;;;;;;3.10;2.27;;;7.50;1.00;;;;;;5093226;28;20471;-77
2022/01/22 12:55:50;;;;;;;2.17;1.97;;;7.50;1.00;;;;;;5093283;28;20698;-75
2022/01/22 12:58:37;;;;;;;2.10;2.00;;;7.40;1.00;;;;;;5093471;28;20888;-76
2022/01/22 13:01:27;;;;;;;2.13;2.03;;;7.40;1.00;;;;;;5093441;28;20477;-74
2022/01/22 13:03:54;;;;;;;2.00;1.80;;;7.50;1.00;;;;;;5093436;28;20414;-77
2022/01/22 13:06:24;;;;;;;1.77;1.67;;;7.50;1.00;;;;;;5093325;28;20455;-77
2022/01/22 13:08:55;;;;;;;1.83;1.73;;;7.60;1.00;;;;;;5092596;28;20411;-76
2022/01/22 13:11:25;;;;;;;2.00;1.90;;;7.60;1.00;;;;;;5092898;28;20419;-76
2022/01/22 13:13:50;;;;;;;1.70;1.33;;;7.50;1.00;;;;;;5093055;28;20392;-77
2022/01/22 13:16:17;;;;;;;1.70;1.60;;;7.50;1.00;;;;;;5093161;28;20402;-78
2022/01/22 13:18:43;;;;;;;1.50;1.40;;;7.60;1.00;;;;;;5092408;28;20166;-75
2022/01/22 13:21:11;;;;;;;2.27;1.63;;;7.70;1.00;;;;;;5093150;28;20439;-77
2022/01/22 13:23:37;;;;;;;2.13;1.50;;;7.70;1.00;;;;;;5093119;28;20404;-77
2022/01/22 13:26:03;;;;;;;1.73;1.63;;;7.50;1.00;;;;;;5093221;28;20501;-75
2022/01/22 13:28:34;;;;;;;1.70;1.60;;;7.60;1.00;;;;;;5074367;28;20427;-80
2022/01/22 13:31:08;;;;;;;2.07;1.97;;;7.60;1.00;;;;;;5092424;28;20418;-75
2022/01/22 13:49:27;;;;;;;4.40;1.73;;;7.40;1.00;;;;;;5091955;28;20514;-75
2022/01/22 13:52:02;;;;;;;1.87;1.33;;;7.40;1.00;;;;;;5092876;28;20411;-77
2022/01/22 13:54:35;;;;;;;1.40;1.30;;;7.40;1.00;;;;;;5092767;28;20490;-75
2022/01/22 13:57:13;;;;;;;1.30;1.20;;;7.40;1.00;;;;;;5092758;28;20391;-77
2022/01/22 13:59:42;;;;;;;2.77;1.53;;;7.50;1.00;;;;;;5091875;28;20780;-78
2022/01/22 14:04:48;;;;;;;1.60;1.50;;;7.50;1.00;;;;;;5092787;28;20501;-77
2022/01/22 14:07:35;;;;;;;2.20;1.20;;;7.60;1.00;;;;;;5092008;28;20396;-75
2022/01/22 14:10:14;;;;;;;4.57;1.93;;;7.60;1.00;;;;;;5091804;28;20408;-77
2022/01/22 14:12:42;;;;;;;1.60;1.50;;;7.70;1.00;;;;;;5092659;28;20406;-77
2022/01/22 14:15:11;;;;;;;1.63;1.53;;;7.70;1.00;;;;;;5092760;28;20486;-77
2022/01/22 14:18:10;;;;;;;2.20;2.10;;;7.70;1.00;;;;;;5092568;28;20400;-76
2022/01/22 14:21:07;;;;;;;3.60;1.73;;;7.70;1.00;;;;;;5091644;28;20433;-78
2022/01/22 14:23:35;;;;;;;3.50;1.67;;;7.70;1.00;;;;;;5083183;28;20424;-78
2022/01/22 14:26:12;;;;;;;2.37;2.17;;;7.70;1.00;;;;;;5073744;28;20451;-75
2022/01/22 14:28:41;;;;;;;4.00;3.63;;;7.70;1.00;;;;;;5091628;28;20397;-78
2022/01/22 14:31:47;;;;;;;1.90;1.80;;;7.60;1.00;;;;;;5092413;28;20412;-75
2022/01/22 14:34:28;;;;;;;3.13;1.80;;;7.70;1.00;;;;;;5078603;28;20447;-75
2022/01/22 14:36:54;;;;;;;1.70;1.60;;;7.60;1.00;;;;;;5092364;28;20415;-76
2022/01/22 14:45:07;;;;;;;1.70;1.60;;;7.60;1.00;;;;;;5095154;28;20461;-75
2022/01/22 14:47:35;;;;;;;1.90;1.80;;;7.60;1.00;;;;;;5096068;28;20419;-75
2022/01/22 14:50:00;;;;;;;1.60;1.50;;;7.50;1.00;;;;;;5095308;28;20400;-75
2022/01/22 14:52:27;;;;;;;2.50;1.60;;;7.50;1.00;;;;;;5093113;28;20424;-77
2022/01/22 14:54:56;;;;;;;1.77;1.67;;;7.50;1.00;;;;;;5095904;28;20650;-76
2022/01/22 14:57:27;;;;;;;1.90;1.60;;;7.40;1.00;;;;;;5095835;28;20427;-78
2022/01/22 14:59:53;;;;;;;1.60;1.50;;;7.50;1.00;;;;;;5094396;28;20399;-77
2022/01/22 15:02:19;;;;;;;2.10;2.00;;;7.40;1.00;;;;;;5077599;28;20762;-77
2022/01/22 15:04:45;;;;;;;2.10;1.90;;;7.40;1.00;;;;;;5095844;28;20403;-77
2022/01/22 15:07:14;;;;;;;1.97;1.87;;;7.40;1.00;;;;;;5095553;28;20382;-77
2022/01/22 15:09:42;;;;;;;1.87;1.77;;;7.40;1.00;;;;;;5094729;28;20412;-77
2022/01/22 15:12:09;;;;;;;1.60;1.50;;;7.40;1.00;;;;;;5095245;28;20796;-75